Time;durP1;ratioP1;P1;durP2;ratioP2;P2;SDS_P1;SDS_P2;PMS_P1;PMS_P2;Temp;Humidity;BMP_temperature;BMP_pressure;BME280_temperature;BME280_humidity;BME280_pressure;Samples;Min_cycle;Max_cycle;Signal;HPM_P1;HPM_P2
2022/03/31 00:00:55;;;;;;;;;;;9.60;99.90;;;;;;5050131;28;20286;-56
2022/03/31 00:03:21;;;;;;;;;;;9.50;99.90;;;;;;5049727;28;19945;-56
2022/03/31 00:05:48;;;;;;;;;;;9.60;99.90;;;;;;5052130;28;19998;-54
2022/03/31 00:08:15;;;;;;;;;;;9.60;99.90;;;;;;5051170;28;20427;-53
2022/03/31 00:10:42;;;;;;;;;;;9.60;99.90;;;;;;5049351;28;19921;-57
2022/03/31 00:13:10;;;;;;;;;;;9.60;99.90;;;;;;5049879;28;20004;-56
2022/03/31 00:15:36;;;;;;;;;;;9.60;99.90;;;;;;5049721;28;19917;-56
2022/03/31 00:18:02;;;;;;;;;;;9.50;99.90;;;;;;5050315;28;20695;-57
2022/03/31 00:20:28;;;;;;;;;;;9.50;99.90;;;;;;5052649;28;19912;-56
2022/03/31 00:22:54;;;;;;;;;;;9.60;99.90;;;;;;5049963;28;20424;-55
2022/03/31 00:25:20;;;;;;;;;;;9.50;99.90;;;;;;5048474;28;19931;-57
2022/03/31 00:27:45;;;;;;;;;;;9.50;99.90;;;;;;5049187;28;19919;-55
2022/03/31 00:30:13;;;;;;;;;;;9.50;99.90;;;;;;5049209;28;20004;-57
2022/03/31 00:32:38;;;;;;;;;;;9.40;99.90;;;;;;5052947;28;19924;-57
2022/03/31 00:35:05;;;;;;;;;;;9.40;99.90;;;;;;5049872;28;20024;-57
2022/03/31 00:37:30;;;;;;;;;;;9.40;99.90;;;;;;5049331;28;19913;-56
2022/03/31 00:39:56;;;;;;;;;;;9.30;99.90;;;;;;5049479;28;19966;-57
2022/03/31 00:42:22;;;;;;;;;;;9.30;99.90;;;;;;5048911;28;19917;-56
2022/03/31 00:44:48;;;;;;;;;;;9.30;99.90;;;;;;5051015;28;20033;-57
2022/03/31 00:47:13;;;;;;;;;;;9.30;99.90;;;;;;5050178;28;19923;-56
2022/03/31 00:49:39;;;;;;;;;;;9.30;99.90;;;;;;5049340;28;20164;-57
2022/03/31 00:52:04;;;;;;;;;;;9.30;99.90;;;;;;5049116;28;19917;-56
2022/03/31 00:54:32;;;;;;;;;;;9.30;99.90;;;;;;5048766;28;19909;-57
2022/03/31 00:56:57;;;;;;;;;;;9.30;99.90;;;;;;5049762;28;19942;-56
2022/03/31 00:59:24;;;;;;;;;;;9.20;99.90;;;;;;5051372;28;20799;-57
2022/03/31 01:01:51;;;;;;;;;;;9.20;99.90;;;;;;5049251;28;19909;-56
2022/03/31 01:04:16;;;;;;;;;;;9.20;99.90;;;;;;5048613;28;19919;-56
2022/03/31 01:06:45;;;;;;;;;;;9.30;99.90;;;;;;5048626;28;19909;-55
2022/03/31 01:09:13;;;;;;;;;;;9.30;99.90;;;;;;5048739;28;19917;-56
2022/03/31 01:11:39;;;;;;;;;;;9.20;99.90;;;;;;5051987;28;19923;-56
2022/03/31 01:14:06;;;;;;;;;;;9.20;99.90;;;;;;5049255;28;19913;-57
2022/03/31 01:16:32;;;;;;;;;;;9.20;99.90;;;;;;5048391;28;19909;-57
2022/03/31 01:19:02;;;;;;;;;;;9.20;99.90;;;;;;5048223;28;19917;-56
2022/03/31 01:21:28;;;;;;;;;;;9.30;99.90;;;;;;5048358;28;20131;-56
2022/03/31 01:23:54;;;;;;;;;;;9.30;99.90;;;;;;5049864;28;19913;-57
2022/03/31 01:26:21;;;;;;;;;;;9.30;99.90;;;;;;5050246;28;20000;-56
2022/03/31 01:28:46;;;;;;;;;;;9.20;99.90;;;;;;5047932;28;19915;-56
2022/03/31 01:31:13;;;;;;;;;;;9.10;99.90;;;;;;5048607;28;19924;-56
2022/03/31 01:33:40;;;;;;;;;;;9.10;99.90;;;;;;5049747;28;19913;-57
2022/03/31 01:36:07;;;;;;;;;;;9.10;99.90;;;;;;5048216;28;19971;-57
2022/03/31 01:38:33;;;;;;;;;;;9.10;99.90;;;;;;5047362;28;19909;-57
2022/03/31 01:40:59;;;;;;;;;;;9.10;99.90;;;;;;5047929;28;19920;-57
2022/03/31 01:43:25;;;;;;;;;;;9.10;99.90;;;;;;5048339;28;19913;-55
2022/03/31 01:45:52;;;;;;;;;;;9.10;99.90;;;;;;5048006;28;19920;-56
2022/03/31 01:48:18;;;;;;;;;;;9.00;99.90;;;;;;5048042;28;19924;-56
2022/03/31 01:50:44;;;;;;;;;;;9.00;99.90;;;;;;5050604;28;19917;-51
2022/03/31 01:53:10;;;;;;;;;;;9.00;99.90;;;;;;5048803;28;19916;-56
2022/03/31 01:55:36;;;;;;;;;;;9.00;99.90;;;;;;5047891;28;19916;-56
2022/03/31 01:58:01;;;;;;;;;;;9.00;99.90;;;;;;5047824;28;20019;-57
2022/03/31 02:00:27;;;;;;;;;;;9.00;99.90;;;;;;5047298;28;20282;-57
2022/03/31 02:02:53;;;;;;;;;;;9.00;99.90;;;;;;5049556;28;19920;-57
2022/03/31 02:05:18;;;;;;;;;;;8.90;99.90;;;;;;5049712;28;19912;-58
2022/03/31 02:07:44;;;;;;;;;;;8.90;99.90;;;;;;5047175;28;19917;-54
2022/03/31 02:10:10;;;;;;;;;;;8.80;99.90;;;;;;5047714;28;19920;-57
2022/03/31 02:12:36;;;;;;;;;;;8.80;99.90;;;;;;5048851;28;19920;-56
2022/03/31 02:15:02;;;;;;;;;;;8.80;99.90;;;;;;5048201;28;19913;-55
2022/03/31 02:17:27;;;;;;;;;;;8.80;99.90;;;;;;5050655;28;19909;-57
2022/03/31 02:19:53;;;;;;;;;;;8.80;99.90;;;;;;5047627;28;19974;-57
2022/03/31 02:22:18;;;;;;;;;;;8.70;99.90;;;;;;5047101;28;19956;-56
2022/03/31 02:24:44;;;;;;;;;;;8.70;99.90;;;;;;5047319;28;20031;-57
2022/03/31 02:27:11;;;;;;;;;;;8.70;99.90;;;;;;5047147;28;20328;-57
2022/03/31 02:29:36;;;;;;;;;;;8.60;99.90;;;;;;5050937;28;19909;-56
2022/03/31 02:32:04;;;;;;;;;;;8.70;99.90;;;;;;5048858;28;19966;-53
2022/03/31 02:34:29;;;;;;;;;;;8.70;99.90;;;;;;5047334;28;20004;-57
2022/03/31 02:36:55;;;;;;;;;;;8.60;99.90;;;;;;5047049;28;20000;-53
2022/03/31 02:39:20;;;;;;;;;;;8.70;99.90;;;;;;5047450;28;19913;-56
2022/03/31 02:41:46;;;;;;;;;;;8.60;99.90;;;;;;5049785;28;20003;-55
2022/03/31 02:44:11;;;;;;;;;;;8.50;99.90;;;;;;5048437;28;19916;-50
2022/03/31 02:46:38;;;;;;;;;;;8.50;99.90;;;;;;5047413;28;19912;-56
2022/03/31 02:49:04;;;;;;;;;;;8.60;99.90;;;;;;5049048;28;19958;-56
2022/03/31 02:51:29;;;;;;;;;;;8.50;99.90;;;;;;5050733;28;19939;-53
2022/03/31 02:56:40;;;;;;;;;;;8.50;99.90;;;;;;5051464;28;19920;-57
2022/03/31 02:59:07;;;;;;;;;;;8.40;99.90;;;;;;5053395;28;19913;-55
2022/03/31 03:01:32;;;;;;;;;;;8.40;99.90;;;;;;5050716;28;19919;-57
2022/03/31 03:03:58;;;;;;;;;;;8.40;99.90;;;;;;5050839;28;19916;-57
2022/03/31 03:06:24;;;;;;;;;;;8.30;99.90;;;;;;5050835;28;20342;-56
2022/03/31 03:08:50;;;;;;;;;;;8.30;99.90;;;;;;5035641;28;19993;-57
2022/03/31 03:11:17;;;;;;;;;;;8.30;99.90;;;;;;5052198;28;19927;-56
2022/03/31 03:13:46;;;;;;;;;;;8.30;99.90;;;;;;5050794;28;20270;-57
2022/03/31 03:16:12;;;;;;;;;;;8.30;99.90;;;;;;5050769;28;19917;-57
2022/03/31 03:18:38;;;;;;;;;;;8.30;99.90;;;;;;5051236;28;19916;-56
2022/03/31 03:21:04;;;;;;;;;;;8.30;99.90;;;;;;5051153;28;20325;-57
2022/03/31 03:23:33;;;;;;;;;;;8.20;99.90;;;;;;5053564;28;19915;-57
2022/03/31 03:26:00;;;;;;;;;;;8.20;99.90;;;;;;5050369;28;19912;-59
2022/03/31 03:28:27;;;;;;;;;;;8.30;99.90;;;;;;5050561;28;19920;-56
2022/03/31 03:30:52;;;;;;;;;;;8.30;99.90;;;;;;5050570;28;19970;-56
2022/03/31 03:33:18;;;;;;;;;;;8.20;99.90;;;;;;5050397;28;20007;-55
2022/03/31 03:35:44;;;;;;;;;;;8.20;99.90;;;;;;5052449;28;20007;-56
2022/03/31 03:38:09;;;;;;;;;;;8.20;99.90;;;;;;5033419;28;19912;-56
2022/03/31 03:40:35;;;;;;;;;;;8.30;99.90;;;;;;5050042;28;19913;-55
2022/03/31 03:43:00;;;;;;;;;;;8.30;99.90;;;;;;5050532;28;19995;-55
2022/03/31 03:45:26;;;;;;;;;;;8.20;99.90;;;;;;5050120;28;19913;-56
2022/03/31 03:47:51;;;;;;;;;;;8.30;99.90;;;;;;5053062;28;20004;-55
2022/03/31 03:50:17;;;;;;;;;;;8.30;99.90;;;;;;5050815;28;19952;-55
2022/03/31 03:52:42;;;;;;;;;;;8.20;99.90;;;;;;5032275;28;20377;-55
2022/03/31 03:55:09;;;;;;;;;;;8.30;99.90;;;;;;5050170;28;19916;-55
2022/03/31 03:57:34;;;;;;;;;;;8.20;99.90;;;;;;5049966;28;19928;-54
2022/03/31 04:00:00;;;;;;;;;;;8.10;99.90;;;;;;5050001;28;20011;-55
2022/03/31 04:02:26;;;;;;;;;;;8.10;99.90;;;;;;5052651;28;19931;-55
2022/03/31 04:04:52;;;;;;;;;;;8.10;99.90;;;;;;5050170;28;19913;-57
2022/03/31 04:07:17;;;;;;;;;;;8.10;99.90;;;;;;5049398;28;19935;-55
2022/03/31 04:09:43;;;;;;;;;;;8.10;99.90;;;;;;5035053;28;19952;-55
2022/03/31 04:12:09;;;;;;;;;;;8.00;99.90;;;;;;5049588;28;19921;-56
2022/03/31 04:14:34;;;;;;;;;;;8.00;99.90;;;;;;5053508;28;20005;-56
2022/03/31 04:17:00;;;;;;;;;;;8.00;99.90;;;;;;5050011;28;19948;-56
2022/03/31 04:19:26;;;;;;;;;;;7.90;99.90;;;;;;5049250;28;19913;-54
2022/03/31 04:21:51;;;;;;;;;;;7.90;99.90;;;;;;5049506;28;20011;-56
2022/03/31 04:24:17;;;;;;;;;;;7.90;99.90;;;;;;5049910;28;19917;-56
2022/03/31 04:26:43;;;;;;;;;;;7.90;99.90;;;;;;5052286;28;19996;-56
2022/03/31 04:29:10;;;;;;;;;;;7.80;99.90;;;;;;5050485;28;20043;-58
2022/03/31 04:31:36;;;;;;;;;;;7.80;99.90;;;;;;5048902;28;19929;-55
2022/03/31 04:34:04;;;;;;;;;;;7.80;99.90;;;;;;5048450;28;20131;-56
2022/03/31 04:36:29;;;;;;;;;;;7.70;99.90;;;;;;5049459;28;19917;-54
2022/03/31 04:38:55;;;;;;;;;;;7.70;99.90;;;;;;5050822;28;19956;-56
2022/03/31 04:41:20;;;;;;;;;;;7.70;99.90;;;;;;5049564;28;19923;-56
2022/03/31 04:43:46;;;;;;;;;;;7.60;99.90;;;;;;5034656;28;19915;-52
2022/03/31 04:46:11;;;;;;;;;;;7.60;99.90;;;;;;5049159;28;19917;-54
2022/03/31 04:48:37;;;;;;;;;;;7.50;99.90;;;;;;5048992;28;19913;-54
2022/03/31 04:51:03;;;;;;;;;;;7.50;99.90;;;;;;5049570;28;19925;-57
2022/03/31 04:53:28;;;;;;;;;;;7.50;99.90;;;;;;5052266;28;19912;-56
2022/03/31 04:55:54;;;;;;;;;;;7.50;99.90;;;;;;5049069;28;19909;-54
2022/03/31 04:58:19;;;;;;;;;;;7.40;99.90;;;;;;5048731;28;19913;-55
2022/03/31 05:00:45;;;;;;;;;;;7.30;99.90;;;;;;5048579;28;19916;-56
2022/03/31 05:03:10;;;;;;;;;;;7.30;99.90;;;;;;5048234;28;19917;-56
2022/03/31 05:05:36;;;;;;;;;;;7.30;99.90;;;;;;5051388;28;20003;-56
2022/03/31 05:08:02;;;;;;;;;;;7.30;99.90;;;;;;5048443;28;20050;-54
2022/03/31 05:10:28;;;;;;;;;;;7.30;99.90;;;;;;5047988;28;19955;-55
2022/03/31 05:12:53;;;;;;;;;;;7.20;99.90;;;;;;5047733;28;19960;-58
2022/03/31 05:15:19;;;;;;;;;;;7.20;99.90;;;;;;5048479;28;19913;-56
2022/03/31 05:17:44;;;;;;;;;;;7.20;99.90;;;;;;5032804;28;19913;-56
2022/03/31 05:20:11;;;;;;;;;;;7.20;99.90;;;;;;5049720;28;19966;-56
2022/03/31 05:22:38;;;;;;;;;;;7.20;99.90;;;;;;5048268;28;19909;-56
2022/03/31 05:25:04;;;;;;;;;;;7.20;99.90;;;;;;5048225;28;20433;-55
2022/03/31 05:27:29;;;;;;;;;;;7.10;99.90;;;;;;5048457;28;19912;-48
2022/03/31 05:29:55;;;;;;;;;;;7.10;99.90;;;;;;5049859;28;19924;-56
2022/03/31 05:32:20;;;;;;;;;;;7.20;99.90;;;;;;5049870;28;20313;-57
2022/03/31 05:34:46;;;;;;;;;;;7.10;99.90;;;;;;5032898;28;20297;-54
2022/03/31 05:37:11;;;;;;;;;;;7.10;99.90;;;;;;5048230;28;19908;-58
2022/03/31 05:39:37;;;;;;;;;;;7.10;99.90;;;;;;5048050;28;20353;-56
2022/03/31 05:42:03;;;;;;;;;;;7.10;99.90;;;;;;5049081;28;19961;-55
2022/03/31 05:44:28;;;;;;;;;;;7.10;99.90;;;;;;5051054;28;20361;-57
2022/03/31 05:46:54;;;;;;;;;;;7.10;99.90;;;;;;5050198;28;19921;-57
2022/03/31 05:49:19;;;;;;;;;;;7.00;99.90;;;;;;5047805;28;20340;-57
2022/03/31 05:51:45;;;;;;;;;;;7.00;99.90;;;;;;5047864;28;20443;-56
2022/03/31 05:54:11;;;;;;;;;;;7.00;99.90;;;;;;5030446;28;19920;-56
2022/03/31 05:56:36;;;;;;;;;;;7.00;99.90;;;;;;5051733;28;19931;-57
2022/03/31 05:59:02;;;;;;;;;;;7.00;99.90;;;;;;5048112;28;19916;-55
2022/03/31 06:01:27;;;;;;;;;;;7.10;99.90;;;;;;5047640;28;19909;-57
2022/03/31 06:03:55;;;;;;;;;;;7.20;99.90;;;;;;5048076;28;19913;-57
2022/03/31 06:06:20;;;;;;;;;;;7.20;99.90;;;;;;5047547;28;20054;-57
2022/03/31 06:08:46;;;;;;;;;;;7.20;99.90;;;;;;5049995;28;20011;-55
2022/03/31 06:11:11;;;;;;;;;;;7.30;99.90;;;;;;5049407;28;20043;-57
2022/03/31 06:13:37;;;;;;;;;;;7.40;99.90;;;;;;5047339;28;19908;-57
2022/03/31 06:16:03;;;;;;;;;;;7.30;99.90;;;;;;5047219;28;19913;-55
2022/03/31 06:18:29;;;;;;;;;;;7.30;99.90;;;;;;5047577;28;19916;-57
2022/03/31 06:20:54;;;;;;;;;;;7.30;99.90;;;;;;5049105;28;19913;-56
2022/03/31 06:23:20;;;;;;;;;;;7.30;99.90;;;;;;5048294;28;19912;-56
2022/03/31 06:25:45;;;;;;;;;;;7.30;99.90;;;;;;5048342;28;20297;-55
2022/03/31 06:28:11;;;;;;;;;;;7.30;99.90;;;;;;5049093;28;19978;-57
2022/03/31 06:30:37;;;;;;;;;;;7.30;99.90;;;;;;5048969;28;19921;-57
2022/03/31 06:33:02;;;;;;;;;;;7.30;99.90;;;;;;5047701;28;19996;-57
2022/03/31 06:35:28;;;;;;;;;;;7.40;99.90;;;;;;5050121;28;19913;-62
2022/03/31 06:37:54;;;;;;;;;;;7.40;99.90;;;;;;5030966;28;19923;-60
2022/03/31 06:40:20;;;;;;;;;;;7.40;99.90;;;;;;5047088;28;20007;-70
2022/03/31 06:42:46;;;;;;;;;;;7.50;99.90;;;;;;5047598;28;19967;-71
2022/03/31 06:45:14;;;;;;;;;;;7.50;99.90;;;;;;5046634;28;19927;-71
2022/03/31 06:47:40;;;;;;;;;;;7.60;99.90;;;;;;5049797;28;20288;-72
2022/03/31 06:50:06;;;;;;;;;;;7.50;99.90;;;;;;5047142;28;20419;-71
2022/03/31 06:52:31;;;;;;;;;;;7.60;99.90;;;;;;5048848;28;19974;-71
2022/03/31 06:54:57;;;;;;;;;;;7.60;99.90;;;;;;5048928;28;19917;-70
2022/03/31 06:57:23;;;;;;;;;;;7.60;99.90;;;;;;5049300;28;19912;-71
2022/03/31 06:59:49;;;;;;;;;;;7.50;99.90;;;;;;5049540;28;20288;-70
2022/03/31 07:02:14;;;;;;;;;;;7.60;99.90;;;;;;5048231;28;20361;-70
2022/03/31 07:04:40;;;;;;;;;;;7.60;99.90;;;;;;5046819;28;19966;-69
2022/03/31 07:07:05;;;;;;;;;;;7.60;99.90;;;;;;5047587;28;19913;-71
2022/03/31 07:09:31;;;;;;;;;;;7.60;99.90;;;;;;5037134;28;20735;-69
2022/03/31 07:11:56;;;;;;;;;;;7.60;99.90;;;;;;5043179;28;19939;-71
2022/03/31 07:14:22;;;;;;;;;;;7.60;99.90;;;;;;5039858;28;19959;-68
2022/03/31 07:16:48;;;;;;;;;;;7.70;99.90;;;;;;5041877;28;20389;-68
2022/03/31 07:19:13;;;;;;;;;;;7.70;99.90;;;;;;5040229;28;19912;-70
2022/03/31 07:21:38;;;;;;;;;;;7.80;99.90;;;;;;5038692;28;19927;-70
2022/03/31 07:24:04;;;;;;;;;;;8.00;99.90;;;;;;5039152;28;20352;-70
2022/03/31 07:26:30;;;;;;;;;;;8.10;99.90;;;;;;5039870;28;19924;-68
2022/03/31 07:28:56;;;;;;;;;;;8.10;99.90;;;;;;5040879;28;19967;-68
2022/03/31 07:31:26;;;;;;;;;;;8.20;99.90;;;;;;5038683;28;19920;-68
2022/03/31 07:33:51;;;;;;;;;;;8.30;99.90;;;;;;5040205;28;20297;-69
2022/03/31 07:36:18;;;;;;;;;;;8.30;99.90;;;;;;5042990;28;19991;-70
2022/03/31 07:38:45;;;;;;;;;;;8.30;99.90;;;;;;5043016;28;19917;-70
2022/03/31 07:41:12;;;;;;;;;;;8.30;99.90;;;;;;5044584;28;19936;-68
2022/03/31 07:43:37;;;;;;;;;;;8.30;99.90;;;;;;5045342;28;19916;-69
2022/03/31 07:46:03;;;;;;;;;;;8.30;99.90;;;;;;5046542;28;19982;-69
2022/03/31 07:48:29;;;;;;;;;;;8.30;99.90;;;;;;5041583;28;19964;-70
2022/03/31 07:50:56;;;;;;;;;;;8.30;99.90;;;;;;5042641;28;19925;-69
2022/03/31 07:53:22;;;;;;;;;;;8.20;99.90;;;;;;5044485;28;19916;-69
2022/03/31 07:55:48;;;;;;;;;;;8.20;99.90;;;;;;5045366;28;19975;-69
2022/03/31 07:58:13;;;;;;;;;;;8.10;99.90;;;;;;5043023;28;19935;-69
2022/03/31 08:00:39;;;;;;;;;;;8.10;99.90;;;;;;5045635;28;19920;-69
2022/03/31 08:03:05;;;;;;;;;;;8.10;99.90;;;;;;5048394;28;19917;-69
2022/03/31 08:05:31;;;;;;;;;;;8.00;99.90;;;;;;5052280;28;20329;-68
2022/03/31 08:07:57;;;;;;;;;;;8.00;99.90;;;;;;5050982;28;20043;-68
2022/03/31 08:10:23;;;;;;;;;;;8.00;99.90;;;;;;5050793;28;19921;-68
2022/03/31 08:12:49;;;;;;;;;;;8.00;99.90;;;;;;5049110;28;19917;-69
2022/03/31 08:15:16;;;;;;;;;;;8.10;99.90;;;;;;5050084;28;19924;-69
2022/03/31 08:17:46;;;;;;;;;;;8.00;99.90;;;;;;5052013;28;19919;-68
2022/03/31 08:20:12;;;;;;;;;;;8.00;99.90;;;;;;5051670;28;20003;-68
2022/03/31 08:22:38;;;;;;;;;;;8.00;99.90;;;;;;5049160;28;19909;-70
2022/03/31 08:25:05;;;;;;;;;;;8.00;99.90;;;;;;5048834;28;19920;-69
2022/03/31 08:27:32;;;;;;;;;;;8.00;99.90;;;;;;5048709;28;19909;-69
2022/03/31 08:29:57;;;;;;;;;;;8.00;99.90;;;;;;5050402;28;20875;-69
2022/03/31 08:32:23;;;;;;;;;;;7.90;99.90;;;;;;5050954;28;20019;-70
2022/03/31 08:34:49;;;;;;;;;;;7.80;99.90;;;;;;5048949;28;19917;-70
2022/03/31 08:37:14;;;;;;;;;;;7.70;99.90;;;;;;5048928;28;19913;-69
2022/03/31 08:39:40;;;;;;;;;;;7.60;99.90;;;;;;5048859;28;19920;-69
2022/03/31 08:42:06;;;;;;;;;;;7.60;99.90;;;;;;5049496;28;19976;-73
2022/03/31 08:44:33;;;;;;;;;;;7.40;99.90;;;;;;5051815;28;19916;-74
2022/03/31 08:46:58;;;;;;;;;;;7.10;99.90;;;;;;5032955;28;19912;-73
2022/03/31 08:49:24;;;;;;;;;;;7.00;99.90;;;;;;5048660;28;19966;-73
2022/03/31 08:51:49;;;;;;;;;;;6.90;99.90;;;;;;5048764;28;20001;-73
2022/03/31 08:54:15;;;;;;;;;;;6.60;99.90;;;;;;5048291;28;19913;-72
2022/03/31 08:56:40;;;;;;;;;;;6.50;99.90;;;;;;5052109;28;19927;-70
2022/03/31 08:59:09;;;;;;;;;;;6.40;99.90;;;;;;5044372;28;19910;-71
2022/03/31 09:01:37;;;;;;;;;;;6.30;99.90;;;;;;5044511;28;19917;-71
2022/03/31 09:04:03;;;;;;;;;;;6.10;99.90;;;;;;5048519;28;20466;-71
2022/03/31 09:06:31;;;;;;;;;;;6.00;99.90;;;;;;5048584;28;19920;-70
2022/03/31 09:09:02;;;;;;;;;;;5.90;99.90;;;;;;5049877;28;20007;-70
2022/03/31 09:11:28;;;;;;;;;;;5.90;99.90;;;;;;5050804;28;19984;-70
2022/03/31 09:13:54;;;;;;;;;;;5.80;99.90;;;;;;5047811;28;19913;-73
2022/03/31 09:16:28;;;;;;;;;;;5.70;99.90;;;;;;5048602;28;19955;-72
2022/03/31 09:18:58;;;;;;;;;;;5.60;99.90;;;;;;5048372;28;20008;-73
2022/03/31 09:21:24;;;;;;;;;;;5.50;99.90;;;;;;5047773;28;19917;-72
2022/03/31 09:23:49;;;;;;;;;;;5.30;99.90;;;;;;5050779;28;19917;-69
2022/03/31 09:26:16;;;;;;;;;;;5.30;99.90;;;;;;5048979;28;19916;-70
2022/03/31 09:28:45;;;;;;;;;;;5.20;99.90;;;;;;5047667;28;20293;-70
2022/03/31 09:31:12;;;;;;;;;;;5.20;99.90;;;;;;5047879;28;19920;-69
2022/03/31 09:33:44;;;;;;;;;;;5.20;99.90;;;;;;5048190;28;20340;-70
2022/03/31 09:36:14;;;;;;;;;;;5.10;99.90;;;;;;5032679;28;19917;-70
2022/03/31 09:38:43;;;;;;;;;;;5.10;99.90;;;;;;5051415;28;19924;-68
2022/03/31 09:41:16;;;;;;;;;;;5.10;99.90;;;;;;5049244;28;20341;-70
2022/03/31 09:43:42;;;;;;;;;;;5.00;99.90;;;;;;5048067;28;19913;-70
2022/03/31 09:46:38;;;;;;;;;;;5.00;99.90;;;;;;5047729;28;19920;-73
2022/03/31 09:49:15;;;;;;;;;;;4.90;99.90;;;;;;5027350;28;19919;-72
2022/03/31 09:51:42;;;;;;;;;;;4.80;99.90;;;;;;5047819;28;20000;-71
2022/03/31 09:54:07;;;;;;;;;;;4.80;99.90;;;;;;5048449;28;19935;-71
2022/03/31 09:56:38;;;;;;;;;;;4.70;99.90;;;;;;5051313;28;19909;-70
2022/03/31 09:59:04;;;;;;;;;;;4.70;99.90;;;;;;5048144;28;19912;-72
2022/03/31 10:01:31;;;;;;;;;;;4.70;99.90;;;;;;5047551;28;19996;-70
2022/03/31 10:03:57;;;;;;;;;;;4.80;99.90;;;;;;5047985;28;19913;-70
2022/03/31 10:06:25;;;;;;;;;;;4.80;99.90;;;;;;5047795;28;19913;-67
2022/03/31 10:08:51;;;;;;;;;;;4.80;99.90;;;;;;5049846;28;19992;-71
2022/03/31 10:11:19;;;;;;;;;;;4.70;99.90;;;;;;5048767;28;20011;-71
2022/03/31 10:13:47;;;;;;;;;;;4.80;99.90;;;;;;5047827;28;19966;-72
2022/03/31 10:16:14;;;;;;;;;;;4.80;99.90;;;;;;5047399;28;20003;-70
2022/03/31 10:18:40;;;;;;;;;;;4.80;99.90;;;;;;5047851;28;20012;-69
2022/03/31 10:21:06;;;;;;;;;;;4.90;99.90;;;;;;5047734;28;20000;-68
2022/03/31 10:26:25;;;;;;;;;;;4.80;99.90;;;;;;5051329;28;20277;-73
2022/03/31 10:28:58;;;;;;;;;;;4.90;99.90;;;;;;5047346;28;19917;-67
2022/03/31 10:31:32;;;;;;;;;;;4.90;99.90;;;;;;5047191;28;20003;-68
2022/03/31 10:33:58;;;;;;;;;;;4.90;99.90;;;;;;5047665;28;19948;-69
2022/03/31 10:36:33;;;;;;;;;;;4.90;99.90;;;;;;5047640;28;20361;-69
2022/03/31 10:39:03;;;;;;;;;;;5.00;99.90;;;;;;5048822;28;20003;-71
2022/03/31 10:41:37;;;;;;;;;;;5.00;99.90;;;;;;5050056;28;19916;-70
2022/03/31 10:44:11;;;;;;;;;;;5.00;99.90;;;;;;5032284;28;19924;-69
2022/03/31 10:46:37;;;;;;;;;;;5.10;99.90;;;;;;5047274;28;20343;-72
2022/03/31 10:49:07;;;;;;;;;;;5.20;99.90;;;;;;5032552;28;19912;-66
2022/03/31 10:51:36;;;;;;;;;;;5.30;99.90;;;;;;5031966;28;19932;-70
2022/03/31 10:54:03;;;;;;;;;;;5.30;99.90;;;;;;5048001;28;19921;-67
2022/03/31 10:56:29;;;;;;;;;;;5.50;99.90;;;;;;5049989;28;19920;-69
2022/03/31 10:58:59;;;;;;;;;;;5.50;99.90;;;;;;5046984;28;19924;-67
2022/03/31 11:01:33;;;;;;;;;;;5.50;99.90;;;;;;5046981;28;19994;-70
2022/03/31 11:04:17;;;;;;;;;;;5.40;99.90;;;;;;5046574;28;20340;-69
2022/03/31 11:06:46;;;;;;;;;;;5.40;99.90;;;;;;5046917;28;19913;-71
2022/03/31 11:09:20;;;;;;;;;;;5.50;99.90;;;;;;5047545;28;20059;-71
2022/03/31 11:11:49;;;;;;;;;;;5.60;99.90;;;;;;5053223;28;19923;-72
2022/03/31 11:14:17;;;;;;;;;;;5.60;99.90;;;;;;5051983;28;19944;-72
2022/03/31 11:16:43;;;;;;;;;;;5.70;99.90;;;;;;5051436;28;19917;-70
2022/03/31 11:19:09;;;;;;;;;;;5.70;99.90;;;;;;5050300;28;19919;-70
2022/03/31 11:21:35;;;;;;;;;;;5.70;99.90;;;;;;5050734;28;19917;-70
2022/03/31 11:24:01;;;;;;;;;;;5.70;99.90;;;;;;5051977;28;19916;-71
2022/03/31 11:26:31;;;;;;;;;;;5.70;99.90;;;;;;5053170;28;19955;-71
2022/03/31 11:28:56;;;;;;;;;;;5.70;99.90;;;;;;5050942;28;19919;-69
2022/03/31 11:31:22;;;;;;;;;;;5.80;99.90;;;;;;5050307;28;19920;-71
2022/03/31 11:33:48;;;;;;;;;;;5.80;99.90;;;;;;5049925;28;19987;-70
2022/03/31 11:36:14;;;;;;;;;;;5.70;99.90;;;;;;5050607;28;19928;-69
2022/03/31 11:38:39;;;;;;;;;;;5.80;99.90;;;;;;5053769;28;20277;-68
2022/03/31 11:41:05;;;;;;;;;;;5.90;99.90;;;;;;5052281;28;19913;-69
2022/03/31 11:43:32;;;;;;;;;;;5.80;99.90;;;;;;5051990;28;19974;-69
2022/03/31 11:45:58;;;;;;;;;;;5.80;99.90;;;;;;5051508;28;19987;-68
2022/03/31 11:48:29;;;;;;;;;;;5.90;99.90;;;;;;5049956;28;19913;-68
2022/03/31 11:50:59;;;;;;;;;;;6.00;99.90;;;;;;5051281;28;20408;-68
2022/03/31 11:53:37;;;;;;;;;;;6.10;99.90;;;;;;5052441;28;19913;-70
2022/03/31 11:56:03;;;;;;;;;;;6.20;99.90;;;;;;5049929;28;20384;-69
2022/03/31 11:58:30;;;;;;;;;;;6.20;99.90;;;;;;5049903;28;19917;-68
2022/03/31 12:00:56;;;;;;;;;;;6.20;99.90;;;;;;5049984;28;20332;-69
2022/03/31 12:03:21;;;;;;;;;;;6.20;99.90;;;;;;5049643;28;19917;-69
2022/03/31 12:05:54;;;;;;;;;;;6.20;99.90;;;;;;5052532;28;20289;-69
2022/03/31 12:08:20;;;;;;;;;;;6.20;99.90;;;;;;5050972;28;19917;-70
2022/03/31 12:10:48;;;;;;;;;;;6.10;99.90;;;;;;5049085;28;19920;-71
2022/03/31 12:13:14;;;;;;;;;;;6.10;99.90;;;;;;5049668;28;20012;-70
2022/03/31 12:15:41;;;;;;;;;;;6.20;99.90;;;;;;5049364;28;19988;-69
2022/03/31 12:18:08;;;;;;;;;;;6.30;99.90;;;;;;5049822;28;20007;-67
2022/03/31 12:20:35;;;;;;;;;;;6.30;99.90;;;;;;5052097;28;19937;-69
2022/03/31 12:23:01;;;;;;;;;;;6.30;99.90;;;;;;5047938;28;19909;-71
2022/03/31 12:25:31;;;;;;;;;;;6.30;99.90;;;;;;5051163;28;19913;-67
2022/03/31 12:28:08;;;;;;;;;;;6.30;99.90;;;;;;5049510;28;19913;-67
2022/03/31 12:30:37;;;;;;;;;;;6.30;99.90;;;;;;5049025;28;20301;-67
2022/03/31 12:33:03;;;;;;;;;;;6.30;99.90;;;;;;5049866;28;19928;-67
2022/03/31 12:35:33;;;;;;;;;;;6.40;99.90;;;;;;5051482;28;19908;-66
2022/03/31 12:37:58;;;;;;;;;;;6.50;99.90;;;;;;5048854;28;20086;-69
2022/03/31 12:40:25;;;;;;;;;;;6.70;99.90;;;;;;5034377;28;20007;-69
2022/03/31 12:42:51;;;;;;;;;;;6.70;99.90;;;;;;5048783;28;19985;-67
2022/03/31 12:45:17;;;;;;;;;;;6.70;99.90;;;;;;5031262;28;20126;-68
2022/03/31 12:47:43;;;;;;;;;;;6.60;99.90;;;;;;5051750;28;19960;-67
2022/03/31 12:50:20;;;;;;;;;;;6.60;99.90;;;;;;5049435;28;19963;-68
2022/03/31 12:52:59;;;;;;;;;;;6.70;99.90;;;;;;5048507;28;19923;-68
2022/03/31 12:55:28;;;;;;;;;;;6.70;99.90;;;;;;5048217;28;19987;-67
2022/03/31 12:57:55;;;;;;;;;;;6.90;99.90;;;;;;5048967;28;20384;-66
2022/03/31 13:00:21;;;;;;;;;;;6.80;99.90;;;;;;5048414;28;19917;-66
2022/03/31 13:02:47;;;;;;;;;;;6.90;99.90;;;;;;5050375;28;19928;-67
2022/03/31 13:05:20;;;;;;;;;;;7.00;99.90;;;;;;5038845;28;19913;-68
2022/03/31 13:07:45;;;;;;;;;;;7.20;99.90;;;;;;5041369;28;19971;-65
2022/03/31 13:10:11;;;;;;;;;;;7.20;99.90;;;;;;5047515;28;20721;-68
2022/03/31 13:12:37;;;;;;;;;;;7.40;99.90;;;;;;5045823;28;20439;-66
2022/03/31 13:15:02;;;;;;;;;;;7.40;99.90;;;;;;5045986;28;20005;-68
2022/03/31 13:17:28;;;;;;;;;;;7.40;99.90;;;;;;5046492;28;19917;-66
2022/03/31 13:19:53;;;;;;;;;;;7.30;99.90;;;;;;5045559;28;19919;-65
2022/03/31 13:22:20;;;;;;;;;;;7.40;99.90;;;;;;5044073;28;20000;-65
2022/03/31 13:24:48;;;;;;;;;;;7.40;99.90;;;;;;5039703;28;19958;-66
2022/03/31 13:27:14;;;;;;;;;;;7.40;99.90;;;;;;5042507;28;19917;-67
2022/03/31 13:29:40;;;;;;;;;;;7.50;99.90;;;;;;5042138;28;19917;-67
2022/03/31 13:32:06;;;;;;;;;;;7.60;99.90;;;;;;5041561;28;20390;-68
2022/03/31 13:34:33;;;;;;;;;;;7.60;99.90;;;;;;5043495;28;20019;-65
2022/03/31 13:37:01;;;;;;;;;;;7.60;99.90;;;;;;5041139;28;19948;-66
2022/03/31 13:39:28;;;;;;;;;;;7.50;99.90;;;;;;5039662;28;19914;-68
2022/03/31 13:41:54;;;;;;;;;;;7.60;99.90;;;;;;5041604;28;20002;-67
2022/03/31 13:44:19;;;;;;;;;;;7.60;99.90;;;;;;5040941;28;19913;-66
2022/03/31 13:46:45;;;;;;;;;;;7.60;99.90;;;;;;5043718;28;19924;-65
2022/03/31 13:49:12;;;;;;;;;;;7.60;99.90;;;;;;5039692;28;19916;-68
2022/03/31 13:51:38;;;;;;;;;;;7.60;99.90;;;;;;5041053;28;19966;-69
2022/03/31 13:54:06;;;;;;;;;;;7.70;99.70;;;;;;5041781;28;19921;-67
2022/03/31 13:56:33;;;;;;;;;;;7.70;99.20;;;;;;5043281;28;19997;-68
2022/03/31 14:01:42;;;;;;;;;;;7.90;99.90;;;;;;5043529;28;19919;-67
2022/03/31 14:04:08;;;;;;;;;;;8.00;99.90;;;;;;5040797;28;19913;-67
2022/03/31 14:06:33;;;;;;;;;;;8.10;99.40;;;;;;5039221;28;19917;-66
2022/03/31 14:09:05;;;;;;;;;;;8.20;99.00;;;;;;5042160;28;19913;-70
2022/03/31 14:11:31;;;;;;;;;;;8.20;98.60;;;;;;5041204;28;20193;-68
2022/03/31 14:13:57;;;;;;;;;;;8.20;98.60;;;;;;5042140;28;19917;-69
2022/03/31 14:16:26;;;;;;;;;;;8.10;98.00;;;;;;5041887;28;19924;-69
2022/03/31 14:18:52;;;;;;;;;;;7.90;97.20;;;;;;5040241;28;19916;-67
2022/03/31 14:21:17;;;;;;;;;;;7.90;97.80;;;;;;5022256;28;19919;-66
2022/03/31 14:23:44;;;;;;;;;;;7.70;96.60;;;;;;5047336;28;20340;-67
2022/03/31 14:26:12;;;;;;;;;;;7.50;96.30;;;;;;5047089;28;19920;-67
2022/03/31 14:28:38;;;;;;;;;;;7.30;97.10;;;;;;5045664;28;19913;-67
2022/03/31 14:31:12;;;;;;;;;;;7.20;97.50;;;;;;5046860;28;20389;-68
2022/03/31 14:33:38;;;;;;;;;;;7.10;97.10;;;;;;5046026;28;19912;-67
2022/03/31 14:36:04;;;;;;;;;;;7.00;97.00;;;;;;5046421;28;19920;-65